ポンペイ島 の空港の天気 - METARとTAF

ポンペイ国際空港 ( PTPN / PNI ) - ミクロネシア連邦 ポンペイ島
飛行場実況気象(Metar)
観測時間06/30 13:50 +11 (06/30 02:50 UTC)
風向・風速東 3m/s
視程10km以上
天気現象
全天の8割程度の雲 雲底高度 520m
全天を覆う雲 雲底高度 9140m
気温29℃
湿度84%
気圧1009hPa
METARPTPN 300250Z 09005KT 15SM BKN017TCU OVC300 29/26 A2980 RMK TCU OHD LAST
過去の天気等 Google飛行場航空写真 Wunderground天気予報

過去48時間のMETAR

飛行場予報(TAF)
発表時間: 6/30 11:22 +11 (6/30 00:22 UTC)
予報対象時間: 30日11時 +11 ~ 1日11時 +11
風向・風速東北東 5m/s
視程10km以上
天気現象周辺でしゅう雨
全天の4割程度の雲 雲底高度 550m
全天の8割程度の雲 雲底高度 3960m
30日11時 +11 ~ 30日14時 +11 に一時的に
風向・風速東北東 8m/s 瞬間風速 13m/s
視程3220m
天気現象しゅう雨
全天の8割程度の雲 雲底高度 490m
30日17時 +11 から
風向・風速東南東 8m/s
視程8050m
天気現象弱い雨
全天の4割程度の雲 雲底高度 520m
全天を覆う雲 雲底高度 3050m
PTPN 300022Z 3000/3024 07010KT P6SM VCSH SCT018 BKN130
TEMPO 3000/3003 07015G26KT 2SM SHRA BKN016
FM300600 12015KT 5SM -RA SCT017 OVC100